sensor_id;sensor_type;location;lat;lon;timestamp;P1;durP1;ratioP1;P2;durP2;ratioP2
11865;SDS011;5992;52.744;6.898;2022-07-06T00:00:23;0.87;;;0.87;;
11865;SDS011;5992;52.744;6.898;2022-07-06T00:03:55;2.00;;;0.90;;
11865;SDS011;5992;52.744;6.898;2022-07-06T00:07:14;0.60;;;0.60;;
11865;SDS011;5992;52.744;6.898;2022-07-06T00:10:49;1.33;;;0.90;;
11865;SDS011;5992;52.744;6.898;2022-07-06T00:14:05;1.50;;;0.70;;
11865;SDS011;5992;52.744;6.898;2022-07-06T00:17:36;1.95;;;0.90;;
11865;SDS011;5992;52.744;6.898;2022-07-06T00:20:52;1.13;;;0.77;;
11865;SDS011;5992;52.744;6.898;2022-07-06T00:24:27;2.33;;;0.97;;
11865;SDS011;5992;52.744;6.898;2022-07-06T00:27:32;0.60;;;0.60;;
11865;SDS011;5992;52.744;6.898;2022-07-06T00:30:51;0.90;;;0.73;;
11865;SDS011;5992;52.744;6.898;2022-07-06T00:34:11;0.80;;;0.80;;
11865;SDS011;5992;52.744;6.898;2022-07-06T00:37:43;1.43;;;0.87;;
11865;SDS011;5992;52.744;6.898;2022-07-06T00:41:02;0.60;;;0.60;;
11865;SDS011;5992;52.744;6.898;2022-07-06T00:44:19;3.10;;;0.80;;
11865;SDS011;5992;52.744;6.898;2022-07-06T00:47:24;1.10;;;1.00;;
11865;SDS011;5992;52.744;6.898;2022-07-06T00:50:46;0.80;;;0.80;;
11865;SDS011;5992;52.744;6.898;2022-07-06T00:54:05;0.97;;;0.97;;
11865;SDS011;5992;52.744;6.898;2022-07-06T00:57:27;0.93;;;0.77;;
11865;SDS011;5992;52.744;6.898;2022-07-06T01:00:55;2.60;;;1.00;;
11865;SDS011;5992;52.744;6.898;2022-07-06T01:04:18;1.10;;;1.00;;
11865;SDS011;5992;52.744;6.898;2022-07-06T01:07:36;0.70;;;0.70;;
11865;SDS011;5992;52.744;6.898;2022-07-06T01:11:07;0.80;;;0.80;;
11865;SDS011;5992;52.744;6.898;2022-07-06T01:14:35;0.83;;;0.83;;
11865;SDS011;5992;52.744;6.898;2022-07-06T01:18:05;1.60;;;1.00;;
11865;SDS011;5992;52.744;6.898;2022-07-06T01:21:27;0.83;;;0.70;;
11865;SDS011;5992;52.744;6.898;2022-07-06T01:25:00;0.97;;;0.80;;
11865;SDS011;5992;52.744;6.898;2022-07-06T01:28:31;0.90;;;0.67;;
11865;SDS011;5992;52.744;6.898;2022-07-06T01:32:04;0.57;;;0.57;;
11865;SDS011;5992;52.744;6.898;2022-07-06T01:35:21;1.87;;;0.73;;
11865;SDS011;5992;52.744;6.898;2022-07-06T01:38:52;0.95;;;0.60;;
11865;SDS011;5992;52.744;6.898;2022-07-06T01:42:09;2.20;;;1.15;;
11865;SDS011;5992;52.744;6.898;2022-07-06T01:45:41;1.87;;;0.90;;
11865;SDS011;5992;52.744;6.898;2022-07-06T01:49:01;1.27;;;0.73;;
11865;SDS011;5992;52.744;6.898;2022-07-06T01:52:30;2.07;;;0.90;;
11865;SDS011;5992;52.744;6.898;2022-07-06T01:55:49;0.70;;;0.60;;
11865;SDS011;5992;52.744;6.898;2022-07-06T01:59:20;1.23;;;1.13;;
11865;SDS011;5992;52.744;6.898;2022-07-06T02:02:39;1.90;;;1.03;;
11865;SDS011;5992;52.744;6.898;2022-07-06T02:06:00;1.40;;;0.80;;
11865;SDS011;5992;52.744;6.898;2022-07-06T02:09:04;0.70;;;0.70;;
11865;SDS011;5992;52.744;6.898;2022-07-06T02:12:37;1.35;;;0.80;;
11865;SDS011;5992;52.744;6.898;2022-07-06T02:16:10;0.70;;;0.70;;
11865;SDS011;5992;52.744;6.898;2022-07-06T02:19:39;1.47;;;0.90;;
11865;SDS011;5992;52.744;6.898;2022-07-06T02:22:49;1.25;;;0.90;;
11865;SDS011;5992;52.744;6.898;2022-07-06T02:26:14;1.00;;;0.80;;
11865;SDS011;5992;52.744;6.898;2022-07-06T02:29:38;1.00;;;1.00;;
11865;SDS011;5992;52.744;6.898;2022-07-06T02:33:05;1.13;;;0.70;;
11865;SDS011;5992;52.744;6.898;2022-07-06T02:36:27;0.70;;;0.70;;
11865;SDS011;5992;52.744;6.898;2022-07-06T02:39:51;0.80;;;0.80;;
11865;SDS011;5992;52.744;6.898;2022-07-06T02:43:09;1.03;;;0.80;;
11865;SDS011;5992;52.744;6.898;2022-07-06T02:46:34;1.67;;;0.90;;
11865;SDS011;5992;52.744;6.898;2022-07-06T02:50:03;2.30;;;1.10;;
11865;SDS011;5992;52.744;6.898;2022-07-06T02:53:35;0.97;;;0.77;;
11865;SDS011;5992;52.744;6.898;2022-07-06T02:56:54;0.80;;;0.80;;
11865;SDS011;5992;52.744;6.898;2022-07-06T03:00:19;0.97;;;0.83;;
11865;SDS011;5992;52.744;6.898;2022-07-06T03:03:51;1.33;;;0.97;;
11865;SDS011;5992;52.744;6.898;2022-07-06T03:07:25;0.93;;;0.90;;
11865;SDS011;5992;52.744;6.898;2022-07-06T03:10:59;0.80;;;0.80;;
11865;SDS011;5992;52.744;6.898;2022-07-06T03:14:28;2.40;;;0.90;;
11865;SDS011;5992;52.744;6.898;2022-07-06T03:17:50;0.70;;;0.70;;
11865;SDS011;5992;52.744;6.898;2022-07-06T03:21:10;1.43;;;0.73;;
11865;SDS011;5992;52.744;6.898;2022-07-06T03:24:41;1.03;;;0.80;;
11865;SDS011;5992;52.744;6.898;2022-07-06T03:28:01;1.73;;;0.93;;
11865;SDS011;5992;52.744;6.898;2022-07-06T03:31:23;1.50;;;0.70;;
11865;SDS011;5992;52.744;6.898;2022-07-06T03:38:30;0.85;;;0.60;;
11865;SDS011;5992;52.744;6.898;2022-07-06T03:42:01;1.00;;;0.65;;
11865;SDS011;5992;52.744;6.898;2022-07-06T03:45:20;1.45;;;0.90;;
11865;SDS011;5992;52.744;6.898;2022-07-06T03:48:43;0.63;;;0.60;;
11865;SDS011;5992;52.744;6.898;2022-07-06T03:52:03;2.07;;;0.90;;
11865;SDS011;5992;52.744;6.898;2022-07-06T03:55:28;0.97;;;0.70;;
11865;SDS011;5992;52.744;6.898;2022-07-06T03:59:00;2.37;;;1.07;;
11865;SDS011;5992;52.744;6.898;2022-07-06T04:02:28;1.20;;;0.90;;
11865;SDS011;5992;52.744;6.898;2022-07-06T04:06:00;0.57;;;0.57;;
11865;SDS011;5992;52.744;6.898;2022-07-06T04:09:28;3.07;;;0.90;;
11865;SDS011;5992;52.744;6.898;2022-07-06T04:12:50;1.20;;;1.10;;
11865;SDS011;5992;52.744;6.898;2022-07-06T04:16:19;0.90;;;0.90;;
11865;SDS011;5992;52.744;6.898;2022-07-06T04:19:51;1.63;;;0.80;;
11865;SDS011;5992;52.744;6.898;2022-07-06T04:23:13;0.95;;;0.90;;
11865;SDS011;5992;52.744;6.898;2022-07-06T04:26:34;1.60;;;0.90;;
11865;SDS011;5992;52.744;6.898;2022-07-06T04:30:09;0.70;;;0.70;;
11865;SDS011;5992;52.744;6.898;2022-07-06T04:33:44;0.87;;;0.80;;
11865;SDS011;5992;52.744;6.898;2022-07-06T04:37:03;0.87;;;0.70;;
11865;SDS011;5992;52.744;6.898;2022-07-06T04:40:23;1.95;;;1.10;;
11865;SDS011;5992;52.744;6.898;2022-07-06T04:43:52;0.80;;;0.75;;
11865;SDS011;5992;52.744;6.898;2022-07-06T04:47:16;1.27;;;0.87;;
11865;SDS011;5992;52.744;6.898;2022-07-06T04:50:47;1.00;;;0.80;;
11865;SDS011;5992;52.744;6.898;2022-07-06T04:54:21;0.60;;;0.60;;
11865;SDS011;5992;52.744;6.898;2022-07-06T04:57:42;0.70;;;0.70;;
11865;SDS011;5992;52.744;6.898;2022-07-06T05:00:52;1.57;;;0.87;;
11865;SDS011;5992;52.744;6.898;2022-07-06T05:04:13;1.00;;;0.80;;
11865;SDS011;5992;52.744;6.898;2022-07-06T05:07:45;2.23;;;1.17;;
11865;SDS011;5992;52.744;6.898;2022-07-06T05:11:13;0.83;;;0.83;;
11865;SDS011;5992;52.744;6.898;2022-07-06T05:14:45;0.50;;;0.50;;
11865;SDS011;5992;52.744;6.898;2022-07-06T05:18:03;1.00;;;0.60;;
11865;SDS011;5992;52.744;6.898;2022-07-06T05:21:24;0.60;;;0.60;;
11865;SDS011;5992;52.744;6.898;2022-07-06T05:24:55;1.30;;;0.80;;
11865;SDS011;5992;52.744;6.898;2022-07-06T05:28:13;1.33;;;1.13;;
11865;SDS011;5992;52.744;6.898;2022-07-06T05:31:29;0.50;;;0.50;;
11865;SDS011;5992;52.744;6.898;2022-07-06T05:34:51;1.63;;;0.87;;
11865;SDS011;5992;52.744;6.898;2022-07-06T05:38:34;0.95;;;0.45;;
11865;SDS011;5992;52.744;6.898;2022-07-06T05:42:09;0.87;;;0.70;;
11865;SDS011;5992;52.744;6.898;2022-07-06T05:45:28;1.23;;;0.60;;
11865;SDS011;5992;52.744;6.898;2022-07-06T05:48:57;1.17;;;0.70;;
11865;SDS011;5992;52.744;6.898;2022-07-06T05:52:18;0.90;;;0.70;;
11865;SDS011;5992;52.744;6.898;2022-07-06T05:55:37;4.35;;;0.90;;
11865;SDS011;5992;52.744;6.898;2022-07-06T05:59:11;1.65;;;0.90;;
11865;SDS011;5992;52.744;6.898;2022-07-06T06:02:36;1.60;;;0.77;;
11865;SDS011;5992;52.744;6.898;2022-07-06T06:06:13;3.30;;;0.73;;
11865;SDS011;5992;52.744;6.898;2022-07-06T06:09:43;0.70;;;0.70;;
11865;SDS011;5992;52.744;6.898;2022-07-06T06:13:06;0.95;;;0.80;;
11865;SDS011;5992;52.744;6.898;2022-07-06T06:19:58;0.70;;;0.63;;
11865;SDS011;5992;52.744;6.898;2022-07-06T06:23:27;2.23;;;1.13;;
11865;SDS011;5992;52.744;6.898;2022-07-06T06:26:31;2.53;;;0.90;;
11865;SDS011;5992;52.744;6.898;2022-07-06T06:29:53;1.17;;;1.07;;
11865;SDS011;5992;52.744;6.898;2022-07-06T06:33:09;1.50;;;0.70;;
11865;SDS011;5992;52.744;6.898;2022-07-06T06:36:38;1.37;;;0.87;;
11865;SDS011;5992;52.744;6.898;2022-07-06T06:39:45;1.50;;;1.00;;
11865;SDS011;5992;52.744;6.898;2022-07-06T06:43:07;1.07;;;0.67;;
11865;SDS011;5992;52.744;6.898;2022-07-06T06:46:40;2.23;;;0.90;;
11865;SDS011;5992;52.744;6.898;2022-07-06T06:53:18;1.10;;;0.67;;
11865;SDS011;5992;52.744;6.898;2022-07-06T06:56:50;1.80;;;1.23;;
11865;SDS011;5992;52.744;6.898;2022-07-06T06:59:57;0.53;;;0.50;;
11865;SDS011;5992;52.744;6.898;2022-07-06T07:03:19;1.00;;;0.45;;
11865;SDS011;5992;52.744;6.898;2022-07-06T07:10:17;1.37;;;0.60;;
11865;SDS011;5992;52.744;6.898;2022-07-06T07:13:35;0.67;;;0.60;;
11865;SDS011;5992;52.744;6.898;2022-07-06T07:17:07;1.03;;;0.50;;
11865;SDS011;5992;52.744;6.898;2022-07-06T07:20:23;1.20;;;0.67;;
11865;SDS011;5992;52.744;6.898;2022-07-06T07:23:57;0.45;;;0.45;;
11865;SDS011;5992;52.744;6.898;2022-07-06T07:27:06;2.25;;;0.75;;
11865;SDS011;5992;52.744;6.898;2022-07-06T07:30:40;2.20;;;0.80;;
11865;SDS011;5992;52.744;6.898;2022-07-06T07:33:47;1.70;;;0.53;;
11865;SDS011;5992;52.744;6.898;2022-07-06T07:37:10;2.20;;;0.67;;
11865;SDS011;5992;52.744;6.898;2022-07-06T07:40:17;1.03;;;0.80;;
11865;SDS011;5992;52.744;6.898;2022-07-06T07:43:56;0.63;;;0.63;;
11865;SDS011;5992;52.744;6.898;2022-07-06T07:47:12;1.13;;;0.77;;
11865;SDS011;5992;52.744;6.898;2022-07-06T07:50:32;1.75;;;0.80;;
11865;SDS011;5992;52.744;6.898;2022-07-06T07:53:37;3.40;;;0.77;;
11865;SDS011;5992;52.744;6.898;2022-07-06T07:56:59;1.23;;;0.60;;
11865;SDS011;5992;52.744;6.898;2022-07-06T08:00:17;1.47;;;0.70;;
11865;SDS011;5992;52.744;6.898;2022-07-06T08:03:53;1.57;;;0.70;;
11865;SDS011;5992;52.744;6.898;2022-07-06T08:06:58;4.10;;;0.80;;
11865;SDS011;5992;52.744;6.898;2022-07-06T08:10:30;1.93;;;1.00;;
11865;SDS011;5992;52.744;6.898;2022-07-06T08:13:46;0.50;;;0.50;;
11865;SDS011;5992;52.744;6.898;2022-07-06T08:17:11;1.83;;;0.60;;
11865;SDS011;5992;52.744;6.898;2022-07-06T08:20:26;1.80;;;0.67;;
11865;SDS011;5992;52.744;6.898;2022-07-06T08:23:55;1.50;;;0.57;;
11865;SDS011;5992;52.744;6.898;2022-07-06T08:27:15;2.07;;;0.67;;
11865;SDS011;5992;52.744;6.898;2022-07-06T08:30:36;0.90;;;0.40;;
11865;SDS011;5992;52.744;6.898;2022-07-06T08:33:43;0.93;;;0.60;;
11865;SDS011;5992;52.744;6.898;2022-07-06T08:37:18;0.43;;;0.43;;
11865;SDS011;5992;52.744;6.898;2022-07-06T08:40:21;0.50;;;0.50;;
11865;SDS011;5992;52.744;6.898;2022-07-06T08:47:12;1.40;;;0.37;;
11865;SDS011;5992;52.744;6.898;2022-07-06T08:51:01;1.03;;;0.60;;
11865;SDS011;5992;52.744;6.898;2022-07-06T08:54:16;1.77;;;0.60;;
11865;SDS011;5992;52.744;6.898;2022-07-06T08:57:54;1.80;;;0.40;;
11865;SDS011;5992;52.744;6.898;2022-07-06T09:01:10;1.03;;;0.77;;
11865;SDS011;5992;52.744;6.898;2022-07-06T09:04:43;3.20;;;0.80;;
11865;SDS011;5992;52.744;6.898;2022-07-06T09:08:01;1.50;;;1.20;;
11865;SDS011;5992;52.744;6.898;2022-07-06T09:11:35;1.05;;;0.50;;
11865;SDS011;5992;52.744;6.898;2022-07-06T09:14:57;2.50;;;0.50;;
11865;SDS011;5992;52.744;6.898;2022-07-06T09:21:54;0.90;;;0.43;;
11865;SDS011;5992;52.744;6.898;2022-07-06T09:25:15;3.50;;;0.73;;
11865;SDS011;5992;52.744;6.898;2022-07-06T09:28:40;0.50;;;0.40;;
11865;SDS011;5992;52.744;6.898;2022-07-06T09:32:11;0.60;;;0.60;;
11865;SDS011;5992;52.744;6.898;2022-07-06T09:35:28;1.43;;;0.63;;
11865;SDS011;5992;52.744;6.898;2022-07-06T09:38:56;2.60;;;0.40;;
11865;SDS011;5992;52.744;6.898;2022-07-06T09:42:26;0.80;;;0.23;;
11865;SDS011;5992;52.744;6.898;2022-07-06T09:45:58;1.25;;;0.50;;
11865;SDS011;5992;52.744;6.898;2022-07-06T09:52:19;0.73;;;0.50;;
11865;SDS011;5992;52.744;6.898;2022-07-06T09:55:55;1.33;;;0.90;;
11865;SDS011;5992;52.744;6.898;2022-07-06T09:59:25;1.27;;;0.70;;
11865;SDS011;5992;52.744;6.898;2022-07-06T10:02:47;1.80;;;0.57;;
11865;SDS011;5992;52.744;6.898;2022-07-06T10:06:16;0.70;;;0.53;;
11865;SDS011;5992;52.744;6.898;2022-07-06T10:09:34;1.00;;;0.43;;
11865;SDS011;5992;52.744;6.898;2022-07-06T10:13:09;1.70;;;0.67;;
11865;SDS011;5992;52.744;6.898;2022-07-06T10:16:25;1.73;;;0.43;;
11865;SDS011;5992;52.744;6.898;2022-07-06T10:19:59;0.47;;;0.40;;
11865;SDS011;5992;52.744;6.898;2022-07-06T10:26:42;0.80;;;0.47;;
11865;SDS011;5992;52.744;6.898;2022-07-06T10:29:57;0.40;;;0.40;;
11865;SDS011;5992;52.744;6.898;2022-07-06T10:33:20;0.93;;;0.50;;
11865;SDS011;5992;52.744;6.898;2022-07-06T10:36:37;1.17;;;0.63;;
11865;SDS011;5992;52.744;6.898;2022-07-06T10:40:08;2.00;;;0.50;;
11865;SDS011;5992;52.744;6.898;2022-07-06T10:43:34;0.63;;;0.40;;
11865;SDS011;5992;52.744;6.898;2022-07-06T10:50:09;0.50;;;0.50;;
11865;SDS011;5992;52.744;6.898;2022-07-06T10:53:37;0.73;;;0.30;;
11865;SDS011;5992;52.744;6.898;2022-07-06T10:56:53;0.93;;;0.40;;
11865;SDS011;5992;52.744;6.898;2022-07-06T11:00:15;0.50;;;0.50;;
11865;SDS011;5992;52.744;6.898;2022-07-06T11:03:36;0.33;;;0.33;;
11865;SDS011;5992;52.744;6.898;2022-07-06T11:07:09;0.30;;;0.30;;
11865;SDS011;5992;52.744;6.898;2022-07-06T11:10:25;0.30;;;0.30;;
11865;SDS011;5992;52.744;6.898;2022-07-06T11:13:58;0.40;;;0.40;;
11865;SDS011;5992;52.744;6.898;2022-07-06T11:17:15;0.20;;;0.20;;
11865;SDS011;5992;52.744;6.898;2022-07-06T11:24:36;0.30;;;0.30;;
11865;SDS011;5992;52.744;6.898;2022-07-06T11:28:10;0.30;;;0.30;;
11865;SDS011;5992;52.744;6.898;2022-07-06T11:31:26;0.93;;;0.40;;
11865;SDS011;5992;52.744;6.898;2022-07-06T11:35:01;0.50;;;0.50;;
11865;SDS011;5992;52.744;6.898;2022-07-06T11:38:26;0.85;;;0.60;;
11865;SDS011;5992;52.744;6.898;2022-07-06T11:41:59;0.83;;;0.50;;
11865;SDS011;5992;52.744;6.898;2022-07-06T11:45:24;0.83;;;0.30;;
11865;SDS011;5992;52.744;6.898;2022-07-06T11:48:58;0.70;;;0.70;;
11865;SDS011;5992;52.744;6.898;2022-07-06T11:52:14;0.50;;;0.35;;
11865;SDS011;5992;52.744;6.898;2022-07-06T11:55:34;0.60;;;0.50;;
11865;SDS011;5992;52.744;6.898;2022-07-06T11:58:56;2.10;;;0.80;;
11865;SDS011;5992;52.744;6.898;2022-07-06T12:02:26;0.70;;;0.55;;
11865;SDS011;5992;52.744;6.898;2022-07-06T12:05:44;0.90;;;0.60;;
11865;SDS011;5992;52.744;6.898;2022-07-06T12:09:03;0.50;;;0.50;;
11865;SDS011;5992;52.744;6.898;2022-07-06T12:12:35;2.00;;;0.45;;
11865;SDS011;5992;52.744;6.898;2022-07-06T12:15:43;1.80;;;0.50;;
11865;SDS011;5992;52.744;6.898;2022-07-06T14:09:00;0.95;;;0.80;;
11865;SDS011;5992;52.744;6.898;2022-07-06T14:28:50;0.90;;;0.50;;
11865;SDS011;5992;52.744;6.898;2022-07-06T14:32:06;0.70;;;0.70;;
11865;SDS011;5992;52.744;6.898;2022-07-06T14:41:58;2.15;;;0.60;;
11865;SDS011;5992;52.744;6.898;2022-07-06T14:45:16;0.73;;;0.73;;
11865;SDS011;5992;52.744;6.898;2022-07-06T14:51:41;1.30;;;0.60;;
11865;SDS011;5992;52.744;6.898;2022-07-06T14:55:15;0.60;;;0.60;;
11865;SDS011;5992;52.744;6.898;2022-07-06T14:58:33;0.50;;;0.40;;
11865;SDS011;5992;52.744;6.898;2022-07-06T15:02:09;0.90;;;0.40;;
11865;SDS011;5992;52.744;6.898;2022-07-06T15:05:16;0.83;;;0.73;;
11865;SDS011;5992;52.744;6.898;2022-07-06T15:12:06;1.03;;;0.80;;
11865;SDS011;5992;52.744;6.898;2022-07-06T15:15:28;1.25;;;0.70;;
11865;SDS011;5992;52.744;6.898;2022-07-06T15:18:49;0.50;;;0.50;;
11865;SDS011;5992;52.744;6.898;2022-07-06T15:22:07;0.90;;;0.80;;
11865;SDS011;5992;52.744;6.898;2022-07-06T15:25:14;1.15;;;0.80;;
11865;SDS011;5992;52.744;6.898;2022-07-06T15:28:46;0.43;;;0.43;;
11865;SDS011;5992;52.744;6.898;2022-07-06T15:31:55;1.05;;;0.60;;
11865;SDS011;5992;52.744;6.898;2022-07-06T15:35:24;0.50;;;0.50;;
11865;SDS011;5992;52.744;6.898;2022-07-06T15:38:39;0.50;;;0.50;;
11865;SDS011;5992;52.744;6.898;2022-07-06T15:41:59;0.87;;;0.83;;
11865;SDS011;5992;52.744;6.898;2022-07-06T15:45:09;1.50;;;0.60;;
11865;SDS011;5992;52.744;6.898;2022-07-06T15:48:33;0.80;;;0.70;;
11865;SDS011;5992;52.744;6.898;2022-07-06T15:51:51;0.50;;;0.50;;
11865;SDS011;5992;52.744;6.898;2022-07-06T15:55:12;1.00;;;0.80;;
11865;SDS011;5992;52.744;6.898;2022-07-06T15:58:28;0.90;;;0.60;;
11865;SDS011;5992;52.744;6.898;2022-07-06T16:01:57;0.77;;;0.77;;
11865;SDS011;5992;52.744;6.898;2022-07-06T16:08:17;1.80;;;0.90;;
11865;SDS011;5992;52.744;6.898;2022-07-06T16:11:49;0.50;;;0.50;;
11865;SDS011;5992;52.744;6.898;2022-07-06T16:14:56;1.13;;;0.70;;
11865;SDS011;5992;52.744;6.898;2022-07-06T16:18:25;2.27;;;1.63;;
11865;SDS011;5992;52.744;6.898;2022-07-06T16:25:29;0.90;;;0.90;;
11865;SDS011;5992;52.744;6.898;2022-07-06T16:28:52;5.13;;;1.00;;
11865;SDS011;5992;52.744;6.898;2022-07-06T16:32:14;3.95;;;0.80;;
11865;SDS011;5992;52.744;6.898;2022-07-06T16:42:32;1.63;;;1.03;;
11865;SDS011;5992;52.744;6.898;2022-07-06T16:46:01;1.37;;;0.83;;
11865;SDS011;5992;52.744;6.898;2022-07-06T16:49:22;2.30;;;1.13;;
11865;SDS011;5992;52.744;6.898;2022-07-06T16:52:42;1.20;;;1.10;;
11865;SDS011;5992;52.744;6.898;2022-07-06T16:56:02;1.20;;;1.03;;
11865;SDS011;5992;52.744;6.898;2022-07-06T16:59:35;0.77;;;0.77;;
11865;SDS011;5992;52.744;6.898;2022-07-06T17:02:51;2.43;;;1.23;;
11865;SDS011;5992;52.744;6.898;2022-07-06T17:06:26;4.03;;;0.87;;
11865;SDS011;5992;52.744;6.898;2022-07-06T17:09:41;0.70;;;0.70;;
11865;SDS011;5992;52.744;6.898;2022-07-06T17:13:06;2.13;;;0.70;;
11865;SDS011;5992;52.744;6.898;2022-07-06T17:16:31;1.23;;;1.13;;
11865;SDS011;5992;52.744;6.898;2022-07-06T17:20:02;1.47;;;1.17;;
11865;SDS011;5992;52.744;6.898;2022-07-06T17:23:31;1.17;;;0.90;;
11865;SDS011;5992;52.744;6.898;2022-07-06T17:26:51;3.10;;;1.30;;
11865;SDS011;5992;52.744;6.898;2022-07-06T17:29:58;0.97;;;0.97;;
11865;SDS011;5992;52.744;6.898;2022-07-06T17:33:22;4.13;;;2.10;;
11865;SDS011;5992;52.744;6.898;2022-07-06T17:36:40;2.00;;;1.20;;
11865;SDS011;5992;52.744;6.898;2022-07-06T17:39:58;2.53;;;1.30;;
11865;SDS011;5992;52.744;6.898;2022-07-06T17:43:07;2.20;;;1.00;;
11865;SDS011;5992;52.744;6.898;2022-07-06T17:46:36;1.60;;;1.10;;
11865;SDS011;5992;52.744;6.898;2022-07-06T17:49:45;1.90;;;0.93;;
11865;SDS011;5992;52.744;6.898;2022-07-06T17:53:17;3.00;;;1.07;;
11865;SDS011;5992;52.744;6.898;2022-07-06T17:56:24;2.40;;;1.30;;
11865;SDS011;5992;52.744;6.898;2022-07-06T17:59:42;1.57;;;0.90;;
11865;SDS011;5992;52.744;6.898;2022-07-06T18:03:05;1.90;;;1.33;;
11865;SDS011;5992;52.744;6.898;2022-07-06T18:06:23;1.60;;;1.30;;
11865;SDS011;5992;52.744;6.898;2022-07-06T18:09:54;0.87;;;0.87;;
11865;SDS011;5992;52.744;6.898;2022-07-06T18:13:13;1.37;;;1.20;;
11865;SDS011;5992;52.744;6.898;2022-07-06T18:16:35;1.37;;;1.17;;
11865;SDS011;5992;52.744;6.898;2022-07-06T18:19:40;1.65;;;1.10;;
11865;SDS011;5992;52.744;6.898;2022-07-06T18:23:13;1.80;;;1.40;;
11865;SDS011;5992;52.744;6.898;2022-07-06T18:26:29;2.60;;;1.20;;
11865;SDS011;5992;52.744;6.898;2022-07-06T18:30:01;1.80;;;1.40;;
11865;SDS011;5992;52.744;6.898;2022-07-06T18:33:17;1.63;;;1.10;;
11865;SDS011;5992;52.744;6.898;2022-07-06T18:36:49;2.57;;;1.53;;
11865;SDS011;5992;52.744;6.898;2022-07-06T18:40:10;1.20;;;1.10;;
11865;SDS011;5992;52.744;6.898;2022-07-06T18:43:41;4.35;;;0.95;;
11865;SDS011;5992;52.744;6.898;2022-07-06T18:46:47;1.77;;;1.07;;
11865;SDS011;5992;52.744;6.898;2022-07-06T18:50:05;1.20;;;1.10;;
11865;SDS011;5992;52.744;6.898;2022-07-06T18:53:22;2.67;;;1.30;;
11865;SDS011;5992;52.744;6.898;2022-07-06T18:56:44;1.40;;;1.33;;
11865;SDS011;5992;52.744;6.898;2022-07-06T18:59:59;1.25;;;1.15;;
11865;SDS011;5992;52.744;6.898;2022-07-06T19:03:31;0.90;;;0.90;;
11865;SDS011;5992;52.744;6.898;2022-07-06T19:06:39;3.65;;;1.40;;
11865;SDS011;5992;52.744;6.898;2022-07-06T19:10:02;1.70;;;1.40;;
11865;SDS011;5992;52.744;6.898;2022-07-06T19:13:11;2.17;;;1.30;;
11865;SDS011;5992;52.744;6.898;2022-07-06T19:20:05;2.00;;;1.60;;
11865;SDS011;5992;52.744;6.898;2022-07-06T19:23:35;1.67;;;1.57;;
11865;SDS011;5992;52.744;6.898;2022-07-06T19:26:43;1.67;;;1.40;;
11865;SDS011;5992;52.744;6.898;2022-07-06T19:30:17;2.30;;;1.67;;
11865;SDS011;5992;52.744;6.898;2022-07-06T19:33:34;1.53;;;1.40;;
11865;SDS011;5992;52.744;6.898;2022-07-06T19:36:54;1.73;;;1.63;;
11865;SDS011;5992;52.744;6.898;2022-07-06T19:46:42;1.40;;;1.30;;
11865;SDS011;5992;52.744;6.898;2022-07-06T19:50:00;1.60;;;1.50;;
11865;SDS011;5992;52.744;6.898;2022-07-06T19:53:32;1.90;;;1.63;;
11865;SDS011;5992;52.744;6.898;2022-07-06T19:56:36;3.30;;;1.55;;
11865;SDS011;5992;52.744;6.898;2022-07-06T19:59:59;1.50;;;1.40;;
11865;SDS011;5992;52.744;6.898;2022-07-06T20:03:22;1.70;;;1.50;;
11865;SDS011;5992;52.744;6.898;2022-07-06T20:06:39;1.67;;;1.57;;
11865;SDS011;5992;52.744;6.898;2022-07-06T20:10:13;1.83;;;1.60;;
11865;SDS011;5992;52.744;6.898;2022-07-06T20:13:33;2.87;;;1.90;;
11865;SDS011;5992;52.744;6.898;2022-07-06T20:16:51;1.57;;;1.40;;
11865;SDS011;5992;52.744;6.898;2022-07-06T20:20:01;4.70;;;1.57;;
11865;SDS011;5992;52.744;6.898;2022-07-06T20:23:32;1.80;;;1.70;;
11865;SDS011;5992;52.744;6.898;2022-07-06T20:26:39;3.00;;;2.13;;
11865;SDS011;5992;52.744;6.898;2022-07-06T20:30:11;2.00;;;1.80;;
11865;SDS011;5992;52.744;6.898;2022-07-06T20:33:30;1.90;;;1.65;;
11865;SDS011;5992;52.744;6.898;2022-07-06T20:37:01;3.60;;;1.97;;
11865;SDS011;5992;52.744;6.898;2022-07-06T20:40:18;1.60;;;1.50;;
11865;SDS011;5992;52.744;6.898;2022-07-06T20:43:38;2.83;;;2.00;;
11865;SDS011;5992;52.744;6.898;2022-07-06T20:46:43;2.63;;;2.27;;
11865;SDS011;5992;52.744;6.898;2022-07-06T20:50:03;3.20;;;2.05;;
11865;SDS011;5992;52.744;6.898;2022-07-06T20:53:21;1.85;;;1.75;;
11865;SDS011;5992;52.744;6.898;2022-07-06T20:56:52;2.45;;;2.20;;
11865;SDS011;5992;52.744;6.898;2022-07-06T20:59:57;2.57;;;2.10;;
11865;SDS011;5992;52.744;6.898;2022-07-06T21:03:33;2.47;;;2.20;;
11865;SDS011;5992;52.744;6.898;2022-07-06T21:06:38;3.00;;;2.30;;
11865;SDS011;5992;52.744;6.898;2022-07-06T21:13:24;4.00;;;2.23;;
11865;SDS011;5992;52.744;6.898;2022-07-06T21:16:56;3.10;;;2.20;;
11865;SDS011;5992;52.744;6.898;2022-07-06T21:20:01;2.80;;;2.60;;
11865;SDS011;5992;52.744;6.898;2022-07-06T21:23:33;3.47;;;2.43;;
11865;SDS011;5992;52.744;6.898;2022-07-06T21:26:38;2.33;;;2.13;;
11865;SDS011;5992;52.744;6.898;2022-07-06T21:30:08;2.80;;;2.60;;
11865;SDS011;5992;52.744;6.898;2022-07-06T21:33:29;6.50;;;3.90;;
11865;SDS011;5992;52.744;6.898;2022-07-06T21:37:01;4.90;;;3.00;;
11865;SDS011;5992;52.744;6.898;2022-07-06T21:40:06;3.03;;;2.80;;
11865;SDS011;5992;52.744;6.898;2022-07-06T21:43:37;2.83;;;2.60;;
11865;SDS011;5992;52.744;6.898;2022-07-06T21:46:46;3.40;;;2.90;;
11865;SDS011;5992;52.744;6.898;2022-07-06T21:50:20;3.97;;;2.83;;
11865;SDS011;5992;52.744;6.898;2022-07-06T21:53:40;3.33;;;2.60;;
11865;SDS011;5992;52.744;6.898;2022-07-06T21:56:58;3.20;;;2.85;;
11865;SDS011;5992;52.744;6.898;2022-07-06T22:00:17;3.30;;;2.90;;
11865;SDS011;5992;52.744;6.898;2022-07-06T22:03:53;4.50;;;3.43;;
11865;SDS011;5992;52.744;6.898;2022-07-06T22:07:09;3.30;;;3.00;;
11865;SDS011;5992;52.744;6.898;2022-07-06T22:10:41;2.73;;;2.53;;
11865;SDS011;5992;52.744;6.898;2022-07-06T22:13:58;3.60;;;2.85;;
11865;SDS011;5992;52.744;6.898;2022-07-06T22:17:16;4.00;;;2.80;;
11865;SDS011;5992;52.744;6.898;2022-07-06T22:20:36;4.93;;;3.30;;
11865;SDS011;5992;52.744;6.898;2022-07-06T22:24:11;3.87;;;3.20;;
11865;SDS011;5992;52.744;6.898;2022-07-06T22:27:15;3.07;;;2.70;;
11865;SDS011;5992;52.744;6.898;2022-07-06T22:30:43;3.27;;;2.77;;
11865;SDS011;5992;52.744;6.898;2022-07-06T22:37:44;4.43;;;2.80;;
11865;SDS011;5992;52.744;6.898;2022-07-06T22:41:02;3.70;;;2.90;;
11865;SDS011;5992;52.744;6.898;2022-07-06T22:44:34;3.20;;;2.60;;
11865;SDS011;5992;52.744;6.898;2022-07-06T22:47:51;3.03;;;2.47;;
11865;SDS011;5992;52.744;6.898;2022-07-06T22:51:08;2.87;;;2.67;;
11865;SDS011;5992;52.744;6.898;2022-07-06T22:54:26;3.30;;;2.50;;
11865;SDS011;5992;52.744;6.898;2022-07-06T22:57:57;3.60;;;2.80;;
11865;SDS011;5992;52.744;6.898;2022-07-06T23:01:04;2.57;;;2.37;;
11865;SDS011;5992;52.744;6.898;2022-07-06T23:04:24;2.97;;;2.13;;
11865;SDS011;5992;52.744;6.898;2022-07-06T23:11:05;2.80;;;2.00;;
11865;SDS011;5992;52.744;6.898;2022-07-06T23:14:21;3.93;;;2.40;;
11865;SDS011;5992;52.744;6.898;2022-07-06T23:17:40;3.10;;;2.90;;
11865;SDS011;5992;52.744;6.898;2022-07-06T23:20:56;2.00;;;1.90;;
11865;SDS011;5992;52.744;6.898;2022-07-06T23:24:16;2.43;;;2.00;;
11865;SDS011;5992;52.744;6.898;2022-07-06T23:27:38;2.20;;;1.90;;
11865;SDS011;5992;52.744;6.898;2022-07-06T23:31:09;4.67;;;2.00;;
11865;SDS011;5992;52.744;6.898;2022-07-06T23:34:14;2.55;;;2.35;;
11865;SDS011;5992;52.744;6.898;2022-07-06T23:37:34;2.43;;;1.97;;
11865;SDS011;5992;52.744;6.898;2022-07-06T23:47:41;2.50;;;2.17;;
11865;SDS011;5992;52.744;6.898;2022-07-06T23:51:15;2.90;;;2.60;;
11865;SDS011;5992;52.744;6.898;2022-07-06T23:54:35;2.57;;;2.40;;
11865;SDS011;5992;52.744;6.898;2022-07-06T23:58:06;2.85;;;1.90;;
